sensor_id;sensor_type;location;lat;lon;timestamp;pressure;altitude;pressure_sealevel;temperature;humidity
57114;BME280;42994;51.606;9.988;2023-04-27T00:00:32;99361.81;;;1.39;100.00
57114;BME280;42994;51.606;9.988;2023-04-27T00:02:59;99369.03;;;1.37;100.00
57114;BME280;42994;51.606;9.988;2023-04-27T00:05:30;99360.41;;;1.34;100.00
57114;BME280;42994;51.606;9.988;2023-04-27T00:07:57;99361.97;;;1.37;100.00
57114;BME280;42994;51.606;9.988;2023-04-27T00:10:24;99368.59;;;1.31;100.00
57114;BME280;42994;51.606;9.988;2023-04-27T00:12:57;99372.88;;;1.32;100.00
57114;BME280;42994;51.606;9.988;2023-04-27T00:15:28;99365.03;;;0.99;100.00
57114;BME280;42994;51.606;9.988;2023-04-27T00:17:56;99370.31;;;0.87;100.00
57114;BME280;42994;51.606;9.988;2023-04-27T00:20:23;99361.44;;;1.00;100.00
57114;BME280;42994;51.606;9.988;2023-04-27T00:22:52;99371.50;;;1.06;100.00
57114;BME280;42994;51.606;9.988;2023-04-27T00:25:23;99365.38;;;1.05;100.00
57114;BME280;42994;51.606;9.988;2023-04-27T00:28:04;99362.25;;;1.00;100.00
57114;BME280;42994;51.606;9.988;2023-04-27T00:30:37;99352.19;;;1.05;100.00
57114;BME280;42994;51.606;9.988;2023-04-27T00:33:06;99359.63;;;1.11;100.00
57114;BME280;42994;51.606;9.988;2023-04-27T00:35:45;99352.66;;;1.10;100.00
57114;BME280;42994;51.606;9.988;2023-04-27T00:38:20;99354.09;;;1.03;100.00
57114;BME280;42994;51.606;9.988;2023-04-27T00:41:17;99357.94;;;1.10;100.00
57114;BME280;42994;51.606;9.988;2023-04-27T00:43:49;99360.81;;;1.07;100.00
57114;BME280;42994;51.606;9.988;2023-04-27T00:46:21;99356.25;;;1.09;100.00
57114;BME280;42994;51.606;9.988;2023-04-27T00:48:52;99355.66;;;1.06;100.00
57114;BME280;42994;51.606;9.988;2023-04-27T00:51:27;99360.22;;;1.04;100.00
57114;BME280;42994;51.606;9.988;2023-04-27T00:54:03;99352.28;;;1.04;100.00
57114;BME280;42994;51.606;9.988;2023-04-27T00:56:40;99366.22;;;1.06;100.00
57114;BME280;42994;51.606;9.988;2023-04-27T00:59:11;99358.06;;;0.98;100.00
57114;BME280;42994;51.606;9.988;2023-04-27T01:01:50;99360.84;;;0.96;100.00
57114;BME280;42994;51.606;9.988;2023-04-27T01:04:22;99362.25;;;1.00;100.00
57114;BME280;42994;51.606;9.988;2023-04-27T01:06:58;99362.41;;;0.99;100.00
57114;BME280;42994;51.606;9.988;2023-04-27T01:09:27;99360.00;;;0.95;100.00
57114;BME280;42994;51.606;9.988;2023-04-27T01:11:59;99363.34;;;0.98;100.00
57114;BME280;42994;51.606;9.988;2023-04-27T01:14:37;99363.94;;;1.01;100.00
57114;BME280;42994;51.606;9.988;2023-04-27T01:17:09;99365.41;;;0.94;100.00
57114;BME280;42994;51.606;9.988;2023-04-27T01:19:47;99365.50;;;0.92;100.00
57114;BME280;42994;51.606;9.988;2023-04-27T01:22:31;99368.53;;;0.88;100.00
57114;BME280;42994;51.606;9.988;2023-04-27T01:25:18;99362.78;;;0.83;100.00
57114;BME280;42994;51.606;9.988;2023-04-27T01:27:56;99370.19;;;0.89;100.00
57114;BME280;42994;51.606;9.988;2023-04-27T01:30:35;99361.44;;;0.88;100.00
57114;BME280;42994;51.606;9.988;2023-04-27T01:33:12;99368.16;;;0.81;100.00
57114;BME280;42994;51.606;9.988;2023-04-27T01:35:50;99367.56;;;0.89;100.00
57114;BME280;42994;51.606;9.988;2023-04-27T01:38:23;99363.84;;;0.91;100.00
57114;BME280;42994;51.606;9.988;2023-04-27T01:41:08;99360.72;;;0.86;100.00
57114;BME280;42994;51.606;9.988;2023-04-27T01:43:58;99369.97;;;0.81;100.00
57114;BME280;42994;51.606;9.988;2023-04-27T01:46:31;99371.28;;;0.86;100.00
57114;BME280;42994;51.606;9.988;2023-04-27T01:48:58;99377.88;;;0.81;100.00
57114;BME280;42994;51.606;9.988;2023-04-27T01:51:40;99375.13;;;0.82;100.00
57114;BME280;42994;51.606;9.988;2023-04-27T01:54:33;99382.09;;;0.72;100.00
57114;BME280;42994;51.606;9.988;2023-04-27T01:57:15;99384.78;;;0.36;100.00
57114;BME280;42994;51.606;9.988;2023-04-27T01:59:47;99396.00;;;0.74;100.00
57114;BME280;42994;51.606;9.988;2023-04-27T02:02:15;99393.94;;;0.77;100.00
57114;BME280;42994;51.606;9.988;2023-04-27T02:04:56;99392.63;;;0.83;100.00
57114;BME280;42994;51.606;9.988;2023-04-27T02:07:38;99400.56;;;0.83;100.00
57114;BME280;42994;51.606;9.988;2023-04-27T02:10:15;99393.69;;;0.69;100.00
57114;BME280;42994;51.606;9.988;2023-04-27T02:13:02;99402.09;;;0.63;100.00
57114;BME280;42994;51.606;9.988;2023-04-27T02:15:46;99403.69;;;0.66;100.00
57114;BME280;42994;51.606;9.988;2023-04-27T02:18:31;99404.63;;;0.65;100.00
57114;BME280;42994;51.606;9.988;2023-04-27T02:21:12;99400.28;;;0.64;100.00
57114;BME280;42994;51.606;9.988;2023-04-27T02:23:49;99405.81;;;0.72;100.00
57114;BME280;42994;51.606;9.988;2023-04-27T02:26:21;99405.72;;;0.73;100.00
57114;BME280;42994;51.606;9.988;2023-04-27T02:29:01;99405.81;;;0.72;100.00
57114;BME280;42994;51.606;9.988;2023-04-27T02:31:33;99407.38;;;0.74;100.00
57114;BME280;42994;51.606;9.988;2023-04-27T02:34:03;99416.75;;;0.79;100.00
57114;BME280;42994;51.606;9.988;2023-04-27T02:36:36;99415.38;;;0.50;100.00
57114;BME280;42994;51.606;9.988;2023-04-27T02:39:08;99421.06;;;0.68;100.00
57114;BME280;42994;51.606;9.988;2023-04-27T02:41:39;99410.63;;;0.67;100.00
57114;BME280;42994;51.606;9.988;2023-04-27T02:44:24;99420.56;;;0.74;100.00
57114;BME280;42994;51.606;9.988;2023-04-27T02:46:59;99425.84;;;0.74;100.00
57114;BME280;42994;51.606;9.988;2023-04-27T02:49:49;99432.69;;;0.66;100.00
57114;BME280;42994;51.606;9.988;2023-04-27T02:52:23;99431.84;;;0.65;100.00
57114;BME280;42994;51.606;9.988;2023-04-27T02:54:59;99430.06;;;0.66;100.00
57114;BME280;42994;51.606;9.988;2023-04-27T02:57:31;99421.66;;;0.72;100.00
57114;BME280;42994;51.606;9.988;2023-04-27T03:00:54;99426.94;;;0.72;100.00
57114;BME280;42994;51.606;9.988;2023-04-27T03:03:20;99428.25;;;0.66;100.00
57114;BME280;42994;51.606;9.988;2023-04-27T03:05:57;99427.16;;;0.69;100.00
57114;BME280;42994;51.606;9.988;2023-04-27T03:08:43;99431.59;;;0.68;100.00
57114;BME280;42994;51.606;9.988;2023-04-27T03:11:14;99431.25;;;0.73;100.00
57114;BME280;42994;51.606;9.988;2023-04-27T03:13:52;99434.34;;;0.67;100.00
57114;BME280;42994;51.606;9.988;2023-04-27T03:16:39;99430.88;;;0.55;100.00
57114;BME280;42994;51.606;9.988;2023-04-27T03:19:28;99422.00;;;0.56;100.00
57114;BME280;42994;51.606;9.988;2023-04-27T03:22:15;99421.38;;;0.52;100.00
57114;BME280;42994;51.606;9.988;2023-04-27T03:24:51;99427.16;;;0.57;100.00
57114;BME280;42994;51.606;9.988;2023-04-27T03:27:40;99423.56;;;0.59;100.00
57114;BME280;42994;51.606;9.988;2023-04-27T03:30:33;99430.50;;;0.60;100.00
57114;BME280;42994;51.606;9.988;2023-04-27T03:33:22;99427.03;;;0.59;100.00
57114;BME280;42994;51.606;9.988;2023-04-27T03:35:56;99419.13;;;0.59;100.00
57114;BME280;42994;51.606;9.988;2023-04-27T03:38:26;99439.03;;;0.63;100.00
57114;BME280;42994;51.606;9.988;2023-04-27T03:41:11;99436.00;;;0.56;100.00
57114;BME280;42994;51.606;9.988;2023-04-27T03:43:56;99430.28;;;0.51;100.00
57114;BME280;42994;51.606;9.988;2023-04-27T03:46:34;99430.28;;;0.51;100.00
57114;BME280;42994;51.606;9.988;2023-04-27T03:49:25;99424.53;;;0.57;100.00
57114;BME280;42994;51.606;9.988;2023-04-27T03:54:55;99429.19;;;0.54;100.00
57114;BME280;42994;51.606;9.988;2023-04-27T03:57:29;99434.47;;;0.54;100.00
57114;BME280;42994;51.606;9.988;2023-04-27T03:59:56;99426.94;;;0.61;100.00
57114;BME280;42994;51.606;9.988;2023-04-27T04:02:38;99427.88;;;0.60;100.00
57114;BME280;42994;51.606;9.988;2023-04-27T04:08:17;99423.44;;;0.60;100.00
57114;BME280;42994;51.606;9.988;2023-04-27T04:10:55;99421.13;;;0.33;100.00
57114;BME280;42994;51.606;9.988;2023-04-27T04:13:29;99421.78;;;0.24;100.00
57114;BME280;42994;51.606;9.988;2023-04-27T04:16:16;99421.94;;;0.22;100.00
57114;BME280;42994;51.606;9.988;2023-04-27T04:18:58;99429.06;;;0.44;100.00
57114;BME280;42994;51.606;9.988;2023-04-27T04:21:54;99430.50;;;0.48;100.00
57114;BME280;42994;51.606;9.988;2023-04-27T04:25:10;99420.31;;;0.55;100.00
57114;BME280;42994;51.606;9.988;2023-04-27T04:27:54;99427.41;;;0.66;100.00
57114;BME280;42994;51.606;9.988;2023-04-27T04:30:40;99419.25;;;0.57;100.00
57114;BME280;42994;51.606;9.988;2023-04-27T04:39:05;99441.91;;;0.60;100.00
57114;BME280;42994;51.606;9.988;2023-04-27T04:41:51;99437.47;;;0.49;100.00
57114;BME280;42994;51.606;9.988;2023-04-27T04:44:24;99440.78;;;0.40;100.00
57114;BME280;42994;51.606;9.988;2023-04-27T04:47:13;99435.06;;;0.46;100.00
57114;BME280;42994;51.606;9.988;2023-04-27T04:49:47;99429.88;;;0.45;100.00
57114;BME280;42994;51.606;9.988;2023-04-27T04:52:26;99439.84;;;0.52;100.00
57114;BME280;42994;51.606;9.988;2023-04-27T04:55:19;99436.16;;;0.55;100.00
57114;BME280;42994;51.606;9.988;2023-04-27T04:58:01;99441.19;;;0.58;100.00
57114;BME280;42994;51.606;9.988;2023-04-27T05:00:46;99443.94;;;0.56;100.00
57114;BME280;42994;51.606;9.988;2023-04-27T05:03:34;99444.41;;;0.62;100.00
57114;BME280;42994;51.606;9.988;2023-04-27T05:06:29;99449.81;;;0.60;100.00
57114;BME280;42994;51.606;9.988;2023-04-27T05:09:21;99453.91;;;0.64;100.00
57114;BME280;42994;51.606;9.988;2023-04-27T05:12:05;99448.16;;;0.70;100.00
57114;BME280;42994;51.606;9.988;2023-04-27T05:14:53;99464.47;;;0.75;100.00
57114;BME280;42994;51.606;9.988;2023-04-27T05:17:32;99462.78;;;0.74;100.00
57114;BME280;42994;51.606;9.988;2023-04-27T05:20:10;99462.78;;;0.74;100.00
57114;BME280;42994;51.606;9.988;2023-04-27T05:22:49;99463.88;;;0.83;100.00
57114;BME280;42994;51.606;9.988;2023-04-27T05:25:19;99478.28;;;0.90;100.00
57114;BME280;42994;51.606;9.988;2023-04-27T05:27:52;99466.41;;;0.85;100.00
57114;BME280;42994;51.606;9.988;2023-04-27T05:30:25;99475.53;;;0.92;100.00
57114;BME280;42994;51.606;9.988;2023-04-27T05:32:59;99479.97;;;0.91;100.00
57114;BME280;42994;51.606;9.988;2023-04-27T05:35:37;99495.94;;;1.01;100.00
57114;BME280;42994;51.606;9.988;2023-04-27T05:38:07;99506.50;;;1.12;100.00
57114;BME280;42994;51.606;9.988;2023-04-27T05:40:37;99507.47;;;1.11;100.00
57114;BME280;42994;51.606;9.988;2023-04-27T05:43:13;99504.25;;;1.19;100.00
57114;BME280;42994;51.606;9.988;2023-04-27T05:45:40;99502.19;;;1.11;100.00
57114;BME280;42994;51.606;9.988;2023-04-27T05:48:18;99505.66;;;1.23;100.00
57114;BME280;42994;51.606;9.988;2023-04-27T05:51:06;99503.63;;;1.38;100.00
57114;BME280;42994;51.606;9.988;2023-04-27T05:53:47;99500.84;;;1.51;100.00
57114;BME280;42994;51.606;9.988;2023-04-27T05:56:26;99500.72;;;1.52;100.00
57114;BME280;42994;51.606;9.988;2023-04-27T05:59:05;99502.75;;;1.83;100.00
57114;BME280;42994;51.606;9.988;2023-04-27T06:01:35;99501.28;;;1.79;100.00
57114;BME280;42994;51.606;9.988;2023-04-27T06:04:06;99502.25;;;1.78;100.00
57114;BME280;42994;51.606;9.988;2023-04-27T06:06:37;99507.41;;;1.90;100.00
57114;BME280;42994;51.606;9.988;2023-04-27T06:09:12;99503.22;;;1.77;100.00
57114;BME280;42994;51.606;9.988;2023-04-27T06:11:42;99507.75;;;1.86;100.00
57114;BME280;42994;51.606;9.988;2023-04-27T06:14:37;99501.19;;;2.13;100.00
57114;BME280;42994;51.606;9.988;2023-04-27T06:17:12;99500.66;;;2.30;100.00
57114;BME280;42994;51.606;9.988;2023-04-27T06:19:42;99502.94;;;2.77;100.00
57114;BME280;42994;51.606;9.988;2023-04-27T06:22:19;99506.56;;;2.76;100.00
57114;BME280;42994;51.606;9.988;2023-04-27T06:24:51;99515.03;;;2.91;100.00
57114;BME280;42994;51.606;9.988;2023-04-27T06:27:17;99516.97;;;3.19;100.00
57114;BME280;42994;51.606;9.988;2023-04-27T06:29:45;99513.31;;;2.89;100.00
57114;BME280;42994;51.606;9.988;2023-04-27T06:32:12;99511.00;;;2.75;100.00
57114;BME280;42994;51.606;9.988;2023-04-27T06:34:38;99516.09;;;3.09;100.00
57114;BME280;42994;51.606;9.988;2023-04-27T06:37:06;99520.97;;;3.35;100.00
57114;BME280;42994;51.606;9.988;2023-04-27T06:39:33;99523.84;;;3.62;100.00
57114;BME280;42994;51.606;9.988;2023-04-27T06:42:01;99528.84;;;3.96;100.00
57114;BME280;42994;51.606;9.988;2023-04-27T06:44:30;99538.88;;;3.93;100.00
57114;BME280;42994;51.606;9.988;2023-04-27T06:46:58;99540.59;;;4.13;100.00
57114;BME280;42994;51.606;9.988;2023-04-27T06:49:25;99537.53;;;3.68;100.00
57114;BME280;42994;51.606;9.988;2023-04-27T06:51:52;99538.75;;;3.54;100.00
57114;BME280;42994;51.606;9.988;2023-04-27T06:54:18;99539.75;;;3.62;100.00
57114;BME280;42994;51.606;9.988;2023-04-27T06:56:45;99541.84;;;3.69;100.00
57114;BME280;42994;51.606;9.988;2023-04-27T06:59:19;99533.50;;;4.33;100.00
57114;BME280;42994;51.606;9.988;2023-04-27T07:01:47;99535.84;;;4.75;100.00
57114;BME280;42994;51.606;9.988;2023-04-27T07:04:17;99522.69;;;4.84;100.00
57114;BME280;42994;51.606;9.988;2023-04-27T07:06:48;99521.88;;;4.24;100.00
57114;BME280;42994;51.606;9.988;2023-04-27T07:09:22;99528.75;;;4.27;100.00
57114;BME280;42994;51.606;9.988;2023-04-27T07:11:48;99515.47;;;4.66;100.00
57114;BME280;42994;51.606;9.988;2023-04-27T07:14:26;99524.41;;;4.46;100.00
57114;BME280;42994;51.606;9.988;2023-04-27T07:16:54;99529.81;;;5.03;100.00
57114;BME280;42994;51.606;9.988;2023-04-27T07:19:39;99531.25;;;4.68;100.00
57114;BME280;42994;51.606;9.988;2023-04-27T07:22:06;99533.97;;;5.15;100.00
57114;BME280;42994;51.606;9.988;2023-04-27T07:24:43;99536.81;;;4.74;100.00
57114;BME280;42994;51.606;9.988;2023-04-27T07:27:24;99531.94;;;5.36;100.00
57114;BME280;42994;51.606;9.988;2023-04-27T07:30:03;99541.22;;;5.13;100.00
57114;BME280;42994;51.606;9.988;2023-04-27T07:32:57;99527.94;;;5.23;100.00
57114;BME280;42994;51.606;9.988;2023-04-27T07:35:50;99540.00;;;4.97;100.00
57114;BME280;42994;51.606;9.988;2023-04-27T07:38:21;99525.84;;;5.16;100.00
57114;BME280;42994;51.606;9.988;2023-04-27T07:41:08;99535.22;;;5.20;100.00
57114;BME280;42994;51.606;9.988;2023-04-27T07:43:41;99530.69;;;5.31;100.00
57114;BME280;42994;51.606;9.988;2023-04-27T07:46:35;99533.22;;;5.32;100.00
57114;BME280;42994;51.606;9.988;2023-04-27T07:49:05;99535.41;;;5.47;100.00
57114;BME280;42994;51.606;9.988;2023-04-27T07:54:36;99542.22;;;5.49;100.00
57114;BME280;42994;51.606;9.988;2023-04-27T07:57:12;99545.34;;;5.45;100.00
57114;BME280;42994;51.606;9.988;2023-04-27T07:59:41;99539.75;;;5.75;100.00
57114;BME280;42994;51.606;9.988;2023-04-27T08:02:18;99544.19;;;5.85;100.00
57114;BME280;42994;51.606;9.988;2023-04-27T08:04:56;99536.16;;;6.76;100.00
57114;BME280;42994;51.606;9.988;2023-04-27T08:07:43;99544.28;;;6.57;100.00
57114;BME280;42994;51.606;9.988;2023-04-27T08:10:33;99540.31;;;6.61;100.00
57114;BME280;42994;51.606;9.988;2023-04-27T08:13:09;99536.28;;;6.92;100.00
57114;BME280;42994;51.606;9.988;2023-04-27T08:15:54;99539.34;;;6.08;98.68
57114;BME280;42994;51.606;9.988;2023-04-27T08:19:00;99534.13;;;6.52;100.00
57114;BME280;42994;51.606;9.988;2023-04-27T08:24:35;99536.38;;;7.09;98.33
57114;BME280;42994;51.606;9.988;2023-04-27T08:27:05;99528.72;;;6.88;97.86
57114;BME280;42994;51.606;9.988;2023-04-27T08:29:50;99524.31;;;6.79;97.87
57114;BME280;42994;51.606;9.988;2023-04-27T08:32:30;99523.69;;;7.29;98.44
57114;BME280;42994;51.606;9.988;2023-04-27T08:34:58;99516.91;;;7.77;92.01
57114;BME280;42994;51.606;9.988;2023-04-27T08:37:45;99511.69;;;7.33;91.32
57114;BME280;42994;51.606;9.988;2023-04-27T08:40:35;99522.53;;;7.05;94.64
57114;BME280;42994;51.606;9.988;2023-04-27T08:43:12;99509.16;;;7.23;96.30
57114;BME280;42994;51.606;9.988;2023-04-27T08:45:52;99509.34;;;7.30;95.98
57114;BME280;42994;51.606;9.988;2023-04-27T08:48:32;99513.03;;;8.22;96.66
57114;BME280;42994;51.606;9.988;2023-04-27T08:54:00;99502.75;;;8.44;88.53
57114;BME280;42994;51.606;9.988;2023-04-27T08:57:06;99496.94;;;9.46;86.65
57114;BME280;42994;51.606;9.988;2023-04-27T08:59:36;99490.97;;;9.19;83.68
57114;BME280;42994;51.606;9.988;2023-04-27T09:02:22;99482.53;;;9.86;81.86
57114;BME280;42994;51.606;9.988;2023-04-27T09:04:53;99488.31;;;9.19;81.43
57114;BME280;42994;51.606;9.988;2023-04-27T09:08:01;99496.03;;;9.06;82.01
57114;BME280;42994;51.606;9.988;2023-04-27T09:10:52;99478.00;;;9.55;74.95
57114;BME280;42994;51.606;9.988;2023-04-27T09:14:00;99487.94;;;9.38;76.89
57114;BME280;42994;51.606;9.988;2023-04-27T09:16:43;99489.03;;;8.55;76.99
57114;BME280;42994;51.606;9.988;2023-04-27T09:19:22;99493.38;;;8.64;77.35
57114;BME280;42994;51.606;9.988;2023-04-27T09:22:05;99492.75;;;9.43;77.88
57114;BME280;42994;51.606;9.988;2023-04-27T09:24:57;99481.69;;;8.74;70.46
57114;BME280;42994;51.606;9.988;2023-04-27T09:27:39;99486.66;;;9.10;74.20
57114;BME280;42994;51.606;9.988;2023-04-27T09:30:20;99468.75;;;9.10;67.67
57114;BME280;42994;51.606;9.988;2023-04-27T09:32:52;99475.09;;;9.26;67.07
57114;BME280;42994;51.606;9.988;2023-04-27T09:35:44;99468.97;;;9.88;66.30
57114;BME280;42994;51.606;9.988;2023-04-27T09:38:23;99476.19;;;10.42;70.19
57114;BME280;42994;51.606;9.988;2023-04-27T09:41:03;99454.38;;;10.68;65.19
57114;BME280;42994;51.606;9.988;2023-04-27T09:43:38;99460.00;;;10.73;64.25
57114;BME280;42994;51.606;9.988;2023-04-27T09:46:26;99464.13;;;10.14;62.52
57114;BME280;42994;51.606;9.988;2023-04-27T09:49:05;99460.97;;;9.40;59.81
57114;BME280;42994;51.606;9.988;2023-04-27T09:51:40;99461.88;;;9.63;63.52
57114;BME280;42994;51.606;9.988;2023-04-27T09:54:13;99449.38;;;10.42;65.41
57114;BME280;42994;51.606;9.988;2023-04-27T09:57:01;99456.94;;;10.38;63.17
57114;BME280;42994;51.606;9.988;2023-04-27T09:59:55;99447.94;;;11.22;62.13
57114;BME280;42994;51.606;9.988;2023-04-27T10:03:06;99451.50;;;10.23;61.01
57114;BME280;42994;51.606;9.988;2023-04-27T10:09:05;99459.25;;;9.87;64.40
57114;BME280;42994;51.606;9.988;2023-04-27T10:12:32;99441.41;;;10.33;61.76
57114;BME280;42994;51.606;9.988;2023-04-27T10:15:32;99439.41;;;11.48;63.48
57114;BME280;42994;51.606;9.988;2023-04-27T10:21:32;99445.78;;;11.02;60.63
57114;BME280;42994;51.606;9.988;2023-04-27T10:24:53;99435.91;;;10.27;60.68
57114;BME280;42994;51.606;9.988;2023-04-27T10:27:23;99442.16;;;10.42;61.11
57114;BME280;42994;51.606;9.988;2023-04-27T10:30:25;99442.09;;;10.04;60.99
57114;BME280;42994;51.606;9.988;2023-04-27T10:33:05;99439.13;;;10.45;61.70
57114;BME280;42994;51.606;9.988;2023-04-27T10:35:55;99439.81;;;9.93;62.02
57114;BME280;42994;51.606;9.988;2023-04-27T10:38:43;99444.59;;;9.74;62.39
57114;BME280;42994;51.606;9.988;2023-04-27T10:41:47;99435.47;;;9.92;61.10
57114;BME280;42994;51.606;9.988;2023-04-27T10:44:29;99434.06;;;10.04;61.57
57114;BME280;42994;51.606;9.988;2023-04-27T10:47:13;99434.72;;;10.06;62.82
57114;BME280;42994;51.606;9.988;2023-04-27T10:52:49;99435.16;;;10.41;62.20
57114;BME280;42994;51.606;9.988;2023-04-27T10:55:31;99440.91;;;9.44;60.58
57114;BME280;42994;51.606;9.988;2023-04-27T10:58:03;99439.78;;;9.70;62.45
57114;BME280;42994;51.606;9.988;2023-04-27T11:34:20;99413.25;;;11.20;59.88
57114;BME280;42994;51.606;9.988;2023-04-27T11:36:56;99403.81;;;11.09;59.74
57114;BME280;42994;51.606;9.988;2023-04-27T11:39:26;99394.28;;;10.92;57.71
57114;BME280;42994;51.606;9.988;2023-04-27T11:41:52;99403.75;;;10.50;57.07
57114;BME280;42994;51.606;9.988;2023-04-27T11:44:24;99405.19;;;10.61;57.83
57114;BME280;42994;51.606;9.988;2023-04-27T11:46:51;99403.59;;;10.66;56.66
57114;BME280;42994;51.606;9.988;2023-04-27T11:49:20;99402.91;;;11.17;58.67
57114;BME280;42994;51.606;9.988;2023-04-27T11:51:46;99397.31;;;10.74;58.08
57114;BME280;42994;51.606;9.988;2023-04-27T11:54:13;99403.34;;;11.06;57.92
57114;BME280;42994;51.606;9.988;2023-04-27T11:56:41;99394.81;;;11.02;55.48
57114;BME280;42994;51.606;9.988;2023-04-27T11:59:20;99394.13;;;10.93;54.03
57114;BME280;42994;51.606;9.988;2023-04-27T12:01:47;99388.81;;;10.85;53.66
57114;BME280;42994;51.606;9.988;2023-04-27T12:04:14;99374.09;;;10.51;52.42
57114;BME280;42994;51.606;9.988;2023-04-27T12:06:42;99389.84;;;10.84;54.14
57114;BME280;42994;51.606;9.988;2023-04-27T12:09:08;99379.19;;;10.76;53.73
57114;BME280;42994;51.606;9.988;2023-04-27T12:11:35;99377.28;;;11.00;53.15
57114;BME280;42994;51.606;9.988;2023-04-27T12:14:02;99378.44;;;11.42;53.81
57114;BME280;42994;51.606;9.988;2023-04-27T12:16:29;99372.91;;;12.01;54.23
57114;BME280;42994;51.606;9.988;2023-04-27T12:18:56;99363.31;;;11.92;52.78
57114;BME280;42994;51.606;9.988;2023-04-27T12:21:22;99359.75;;;11.33;52.06
57114;BME280;42994;51.606;9.988;2023-04-27T12:23:50;99355.47;;;12.19;53.83
57114;BME280;42994;51.606;9.988;2023-04-27T12:26:17;99353.09;;;12.59;53.08
57114;BME280;42994;51.606;9.988;2023-04-27T12:28:44;99352.03;;;12.53;51.67
57114;BME280;42994;51.606;9.988;2023-04-27T12:31:13;99342.59;;;12.64;50.66
57114;BME280;42994;51.606;9.988;2023-04-27T12:33:40;99337.22;;;12.64;50.54
57114;BME280;42994;51.606;9.988;2023-04-27T12:36:07;99351.78;;;12.76;51.64
57114;BME280;42994;51.606;9.988;2023-04-27T12:38:34;99347.06;;;12.85;51.77
57114;BME280;42994;51.606;9.988;2023-04-27T12:41:02;99339.94;;;13.12;51.13
57114;BME280;42994;51.606;9.988;2023-04-27T12:43:29;99346.78;;;13.08;51.93
57114;BME280;42994;51.606;9.988;2023-04-27T12:45:56;99344.13;;;13.21;51.70
57114;BME280;42994;51.606;9.988;2023-04-27T12:48:23;99342.91;;;12.82;49.49
57114;BME280;42994;51.606;9.988;2023-04-27T12:50:50;99336.91;;;13.22;52.96
57114;BME280;42994;51.606;9.988;2023-04-27T12:53:17;99348.56;;;13.36;52.66
57114;BME280;42994;51.606;9.988;2023-04-27T12:55:45;99349.41;;;12.95;52.38
57114;BME280;42994;51.606;9.988;2023-04-27T12:58:13;99347.47;;;13.23;51.15
57114;BME280;42994;51.606;9.988;2023-04-27T13:00:40;99347.22;;;13.67;52.18
57114;BME280;42994;51.606;9.988;2023-04-27T13:03:07;99343.03;;;13.51;51.64
57114;BME280;42994;51.606;9.988;2023-04-27T13:05:33;99356.78;;;13.69;52.75
57114;BME280;42994;51.606;9.988;2023-04-27T13:08:01;99346.41;;;13.79;52.28
57114;BME280;42994;51.606;9.988;2023-04-27T13:10:28;99347.09;;;14.28;53.78
57114;BME280;42994;51.606;9.988;2023-04-27T13:12:54;99345.44;;;14.40;52.57
57114;BME280;42994;51.606;9.988;2023-04-27T13:15:22;99346.88;;;14.43;51.98
57114;BME280;42994;51.606;9.988;2023-04-27T13:17:49;99343.38;;;14.09;51.48
57114;BME280;42994;51.606;9.988;2023-04-27T13:20:17;99340.66;;;14.42;52.16
57114;BME280;42994;51.606;9.988;2023-04-27T13:22:44;99342.94;;;14.32;49.92
57114;BME280;42994;51.606;9.988;2023-04-27T13:25:10;99344.38;;;13.88;50.63
57114;BME280;42994;51.606;9.988;2023-04-27T13:27:38;99348.50;;;13.91;51.01
57114;BME280;42994;51.606;9.988;2023-04-27T13:30:06;99339.41;;;14.12;49.67
57114;BME280;42994;51.606;9.988;2023-04-27T13:32:34;99338.56;;;13.98;49.51
57114;BME280;42994;51.606;9.988;2023-04-27T13:35:01;99343.97;;;14.25;50.31
57114;BME280;42994;51.606;9.988;2023-04-27T13:37:28;99341.47;;;14.16;51.35
57114;BME280;42994;51.606;9.988;2023-04-27T13:39:54;99344.56;;;13.73;49.76
57114;BME280;42994;51.606;9.988;2023-04-27T13:42:21;99330.28;;;13.99;48.67
57114;BME280;42994;51.606;9.988;2023-04-27T13:44:53;99334.63;;;13.80;49.35
57114;BME280;42994;51.606;9.988;2023-04-27T13:47:20;99332.16;;;14.12;49.22
57114;BME280;42994;51.606;9.988;2023-04-27T13:49:48;99330.72;;;13.96;48.29
57114;BME280;42994;51.606;9.988;2023-04-27T13:52:15;99340.03;;;14.34;49.93
57114;BME280;42994;51.606;9.988;2023-04-27T13:54:42;99337.53;;;14.32;50.20
57114;BME280;42994;51.606;9.988;2023-04-27T13:57:09;99324.91;;;14.26;48.43
57114;BME280;42994;51.606;9.988;2023-04-27T13:59:36;99323.44;;;14.37;47.32
57114;BME280;42994;51.606;9.988;2023-04-27T14:02:02;99320.75;;;14.17;46.79
57114;BME280;42994;51.606;9.988;2023-04-27T14:04:29;99320.13;;;14.48;47.96
57114;BME280;42994;51.606;9.988;2023-04-27T14:06:57;99312.03;;;14.55;47.65
57114;BME280;42994;51.606;9.988;2023-04-27T14:09:24;99320.31;;;14.60;47.61
57114;BME280;42994;51.606;9.988;2023-04-27T14:11:51;99312.56;;;14.97;48.70
57114;BME280;42994;51.606;9.988;2023-04-27T14:14:18;99313.19;;;14.92;48.03
57114;BME280;42994;51.606;9.988;2023-04-27T14:16:45;99311.47;;;15.11;48.28
57114;BME280;42994;51.606;9.988;2023-04-27T14:19:12;99303.72;;;14.50;45.74
57114;BME280;42994;51.606;9.988;2023-04-27T14:21:40;99307.84;;;14.72;47.22
57114;BME280;42994;51.606;9.988;2023-04-27T14:24:08;99307.44;;;14.69;46.67
57114;BME280;42994;51.606;9.988;2023-04-27T14:26:35;99305.31;;;14.91;46.27
57114;BME280;42994;51.606;9.988;2023-04-27T14:29:01;99297.06;;;14.79;46.29
57114;BME280;42994;51.606;9.988;2023-04-27T14:31:28;99297.47;;;14.69;46.08
57114;BME280;42994;51.606;9.988;2023-04-27T14:33:56;99303.28;;;14.73;45.42
57114;BME280;42994;51.606;9.988;2023-04-27T14:36:22;99303.59;;;15.10;46.96
57114;BME280;42994;51.606;9.988;2023-04-27T14:38:49;99298.50;;;15.33;46.31
57114;BME280;42994;51.606;9.988;2023-04-27T14:41:17;99310.56;;;15.31;47.13
57114;BME280;42994;51.606;9.988;2023-04-27T14:43:44;99294.34;;;15.31;46.52
57114;BME280;42994;51.606;9.988;2023-04-27T14:46:13;99300.56;;;15.31;47.56
57114;BME280;42994;51.606;9.988;2023-04-27T14:48:40;99292.41;;;15.06;46.87
57114;BME280;42994;51.606;9.988;2023-04-27T14:51:06;99288.72;;;15.32;46.05
57114;BME280;42994;51.606;9.988;2023-04-27T14:53:33;99275.63;;;15.68;46.86